Time;durP1;ratioP1;P1;durP2;ratioP2;P2;SDS_P1;SDS_P2;PMS_P1;PMS_P2;Temp;Humidity;BMP_temperature;BMP_pressure;BME280_temperature;BME280_humidity;BME280_pressure;Samples;Min_cycle;Max_cycle;Signal;HPM_P1;HPM_P2
2021/01/21 00:02:17;;;;;;;0.40;0.40;;;5.40;99.90;;;;;;5092313;28;20222;-71
2021/01/21 00:04:43;;;;;;;0.30;0.30;;;5.40;99.90;;;;;;5094693;28;20160;-71
2021/01/21 00:07:08;;;;;;;0.30;0.30;;;5.50;99.90;;;;;;5094214;28;20169;-70
2021/01/21 00:09:34;;;;;;;0.30;0.30;;;5.50;99.90;;;;;;5094616;28;20681;-71
2021/01/21 00:12:00;;;;;;;0.30;0.23;;;5.60;99.90;;;;;;5093888;28;20168;-71
2021/01/21 00:14:25;;;;;;;0.30;0.30;;;5.70;99.90;;;;;;5093804;28;20192;-70
2021/01/21 00:16:51;;;;;;;0.30;0.30;;;5.70;99.90;;;;;;5094066;28;20654;-70
2021/01/21 00:19:17;;;;;;;0.77;0.77;;;5.80;99.90;;;;;;5092930;28;20176;-72
2021/01/21 00:21:42;;;;;;;1.57;1.50;;;5.90;99.90;;;;;;5093013;28;20195;-71
2021/01/21 00:24:08;;;;;;;0.30;0.30;;;5.90;99.90;;;;;;5093897;28;20192;-71
2021/01/21 00:26:34;;;;;;;0.30;0.30;;;5.90;99.90;;;;;;5094208;28;20164;-71
2021/01/21 00:28:59;;;;;;;0.30;0.30;;;5.90;99.90;;;;;;5092127;28;20638;-71
2021/01/21 00:31:25;;;;;;;0.30;0.30;;;5.90;99.90;;;;;;5094085;28;20199;-70
2021/01/21 00:33:51;;;;;;;0.30;0.30;;;5.90;99.90;;;;;;5092543;28;20231;-71
2021/01/21 00:36:17;;;;;;;2.17;2.00;;;5.90;99.90;;;;;;5094215;28;20493;-69
2021/01/21 00:38:42;;;;;;;0.30;0.30;;;6.00;99.90;;;;;;5093390;28;20756;-70
2021/01/21 00:41:08;;;;;;;0.30;0.30;;;6.00;99.90;;;;;;5092654;28;20776;-71
2021/01/21 00:43:34;;;;;;;0.30;0.30;;;6.20;99.90;;;;;;5091784;28;20434;-70
2021/01/21 00:45:59;;;;;;;0.30;0.30;;;6.40;99.80;;;;;;5093466;28;20415;-72
2021/01/21 00:48:25;;;;;;;0.30;0.30;;;6.60;99.40;;;;;;5093973;28;20176;-70
2021/01/21 00:50:51;;;;;;;0.63;0.63;;;6.80;99.00;;;;;;5092578;28;20176;-71
2021/01/21 00:53:16;;;;;;;0.30;0.30;;;6.90;98.50;;;;;;5093189;28;20200;-69
2021/01/21 00:55:42;;;;;;;0.30;0.30;;;7.10;97.80;;;;;;5093899;28;20714;-74
2021/01/21 00:58:08;;;;;;;0.30;0.30;;;7.20;97.80;;;;;;5093265;28;20253;-69
2021/01/21 01:00:35;;;;;;;0.30;0.20;;;7.30;98.00;;;;;;5092829;28;20351;-72
2021/01/21 01:03:04;;;;;;;0.30;0.30;;;7.30;97.90;;;;;;5091338;28;20245;-70
2021/01/21 01:05:30;;;;;;;0.30;0.30;;;7.30;97.70;;;;;;5093639;28;20171;-71
2021/01/21 01:07:55;;;;;;;0.57;0.57;;;7.40;97.10;;;;;;5093131;28;20249;-70
2021/01/21 01:10:21;;;;;;;0.30;0.20;;;7.40;96.90;;;;;;5093511;28;20166;-71
2021/01/21 01:12:47;;;;;;;0.30;0.20;;;7.50;96.70;;;;;;5092771;28;20287;-70
2021/01/21 01:15:13;;;;;;;0.30;0.30;;;7.70;96.50;;;;;;5093372;28;20218;-71
2021/01/21 01:17:39;;;;;;;0.30;0.30;;;7.80;96.20;;;;;;5093776;28;20179;-70
2021/01/21 01:20:05;;;;;;;6.53;1.23;;;7.80;95.90;;;;;;5094563;28;20204;-70
2021/01/21 01:22:31;;;;;;;0.30;0.20;;;7.90;95.80;;;;;;5092857;28;20174;-70
2021/01/21 01:24:56;;;;;;;0.30;0.30;;;8.00;95.60;;;;;;5093511;28;20532;-71
2021/01/21 01:27:22;;;;;;;0.80;0.50;;;8.00;95.60;;;;;;5091882;28;20175;-70
2021/01/21 01:29:48;;;;;;;0.30;0.20;;;8.10;95.70;;;;;;5093036;28;20180;-69
2021/01/21 01:32:14;;;;;;;1.13;1.03;;;8.10;95.80;;;;;;5093534;28;20626;-70
2021/01/21 01:34:39;;;;;;;0.30;0.30;;;8.00;95.70;;;;;;5097175;28;20467;-70
2021/01/21 01:37:05;;;;;;;0.30;0.20;;;8.00;95.30;;;;;;5097052;28;20190;-70
2021/01/21 01:39:31;;;;;;;0.30;0.30;;;8.00;94.90;;;;;;5097505;28;20176;-71
2021/01/21 01:41:57;;;;;;;0.30;0.30;;;8.20;94.50;;;;;;5096508;28;20177;-70
2021/01/21 01:44:23;;;;;;;0.30;0.30;;;8.30;94.20;;;;;;5097315;28;20193;-69
2021/01/21 01:46:48;;;;;;;0.30;0.20;;;8.40;93.60;;;;;;5096936;28;20182;-73
2021/01/21 01:49:14;;;;;;;0.30;0.30;;;8.60;93.20;;;;;;5096849;28;20209;-70
2021/01/21 01:51:44;;;;;;;0.30;0.30;;;8.80;93.10;;;;;;5096714;28;20420;-69
2021/01/21 01:54:11;;;;;;;0.30;0.30;;;8.80;92.90;;;;;;5096864;28;20193;-70
2021/01/21 01:56:37;;;;;;;0.30;0.30;;;8.90;92.60;;;;;;5097168;28;20572;-69
2021/01/21 01:59:03;;;;;;;0.30;0.30;;;9.00;92.30;;;;;;5096530;28;20208;-74
2021/01/21 02:01:29;;;;;;;0.30;0.30;;;9.00;92.20;;;;;;5096249;28;20339;-70
2021/01/21 02:03:55;;;;;;;4.83;0.87;;;9.00;92.00;;;;;;5096600;28;20233;-71
2021/01/21 02:06:21;;;;;;;0.30;0.20;;;9.10;91.90;;;;;;5097034;28;20284;-71
2021/01/21 02:08:47;;;;;;;0.30;0.30;;;9.20;91.50;;;;;;5096211;28;20194;-75
2021/01/21 02:11:40;;;;;;;1.90;1.60;;;9.20;91.50;;;;;;5096436;28;20470;-73
2021/01/21 03:27:43;;;;;;;0.30;0.30;;;10.70;81.60;;;;;;5089025;27;20219;-72
2021/01/21 03:30:09;;;;;;;0.30;0.30;;;10.60;81.90;;;;;;5024405;27;1797933;-71
2021/01/21 03:32:35;;;;;;;0.30;0.20;;;10.60;81.80;;;;;;5078748;28;20172;-70
2021/01/21 03:35:03;;;;;;;0.30;0.30;;;10.60;81.60;;;;;;5052849;28;20199;-70
2021/01/21 03:37:28;;;;;;;0.30;0.30;;;10.60;81.60;;;;;;5089455;28;20247;-72
2021/01/21 03:39:54;;;;;;;0.30;0.30;;;10.50;81.90;;;;;;5090257;28;20199;-71
2021/01/21 03:42:19;;;;;;;0.30;0.30;;;10.50;82.30;;;;;;5072494;28;20619;-71
2021/01/21 03:44:45;;;;;;;0.30;0.20;;;10.40;82.70;;;;;;5052360;28;20522;-71
2021/01/21 03:47:11;;;;;;;0.30;0.20;;;10.40;82.90;;;;;;5085880;28;20175;-72
2021/01/21 03:49:37;;;;;;;0.30;0.20;;;10.40;82.20;;;;;;5090479;28;20203;-69
2021/01/21 03:52:02;;;;;;;0.30;0.20;;;10.30;82.10;;;;;;5056305;28;20180;-69
2021/01/21 03:54:28;;;;;;;0.30;0.30;;;10.30;82.70;;;;;;5051880;28;20560;-70
2021/01/21 03:56:54;;;;;;;0.40;0.40;;;10.30;82.80;;;;;;5083407;28;20436;-69
2021/01/21 03:59:20;;;;;;;0.30;0.30;;;10.20;83.60;;;;;;5090208;28;20525;-70
2021/01/21 04:01:46;;;;;;;0.30;0.30;;;10.10;84.50;;;;;;5087876;28;20479;-70
2021/01/21 04:04:12;;;;;;;0.30;0.28;;;10.10;84.20;;;;;;5071030;28;20220;-70
2021/01/21 04:06:37;;;;;;;0.30;0.30;;;10.00;84.30;;;;;;5064335;28;20176;-70
2021/01/21 04:09:04;;;;;;;0.30;0.20;;;10.00;84.20;;;;;;5089912;28;20165;-71
2021/01/21 04:11:30;;;;;;;0.30;0.30;;;10.00;84.00;;;;;;5100162;28;20176;-70
2021/01/21 04:13:55;;;;;;;0.30;0.30;;;10.00;83.80;;;;;;5092141;28;20617;-69
2021/01/21 04:16:21;;;;;;;0.30;0.30;;;9.90;85.40;;;;;;5099715;28;20184;-71
2021/01/21 04:18:47;;;;;;;0.30;0.30;;;9.90;85.20;;;;;;5088946;28;20172;-70
2021/01/21 04:21:12;;;;;;;0.30;0.30;;;9.90;85.80;;;;;;5072033;28;20173;-71
2021/01/21 04:23:38;;;;;;;0.30;0.30;;;9.80;85.40;;;;;;5069085;28;20761;-71
2021/01/21 04:26:04;;;;;;;0.60;0.60;;;9.80;85.40;;;;;;5063495;28;20665;-71
2021/01/21 04:28:30;;;;;;;0.30;0.30;;;9.80;85.60;;;;;;5089575;28;20176;-72
2021/01/21 04:30:56;;;;;;;0.30;0.30;;;9.80;86.00;;;;;;5037141;28;20528;-71
2021/01/21 04:33:22;;;;;;;0.30;0.30;;;9.70;85.80;;;;;;5005712;28;20273;-73
2021/01/21 04:35:48;;;;;;;0.30;0.30;;;9.80;85.30;;;;;;4992876;28;20253;-70
2021/01/21 04:38:13;;;;;;;0.30;0.30;;;9.80;84.90;;;;;;4992820;28;20179;-69
2021/01/21 04:40:39;;;;;;;0.30;0.30;;;9.80;84.50;;;;;;4992374;28;20182;-71
2021/01/21 04:43:05;;;;;;;0.30;0.30;;;9.80;84.50;;;;;;5060275;28;20672;-71
2021/01/21 04:45:30;;;;;;;0.53;0.53;;;9.90;84.80;;;;;;5060544;28;20178;-73
2021/01/21 04:47:57;;;;;;;0.30;0.30;;;9.90;84.90;;;;;;4993374;28;20535;-70
2021/01/21 04:50:23;;;;;;;0.30;0.30;;;10.00;83.60;;;;;;4993402;28;20174;-72
2021/01/21 04:52:51;;;;;;;0.30;0.30;;;10.10;83.30;;;;;;5060092;28;20291;-69
2021/01/21 04:55:21;;;;;;;0.30;0.30;;;10.10;84.00;;;;;;4993029;28;20653;-71
2021/01/21 04:58:14;;;;;;;0.30;0.20;;;10.10;83.00;;;;;;4992968;28;20210;-70
2021/01/21 05:00:41;;;;;;;0.30;0.30;;;10.10;83.60;;;;;;4992943;28;20233;-73
2021/01/21 05:03:08;;;;;;;0.50;0.47;;;10.20;82.10;;;;;;4992529;28;20588;-70
2021/01/21 05:05:34;;;;;;;0.30;0.30;;;10.40;81.50;;;;;;4992753;28;20179;-71
2021/01/21 05:08:01;;;;;;;0.30;0.30;;;10.50;81.30;;;;;;4992879;28;20221;-71
2021/01/21 05:10:28;;;;;;;0.30;0.30;;;10.50;81.20;;;;;;4993333;28;20171;-70
2021/01/21 05:12:54;;;;;;;0.30;0.20;;;10.50;81.50;;;;;;4992154;28;20764;-69
2021/01/21 05:15:19;;;;;;;0.30;0.20;;;10.50;82.10;;;;;;4992737;28;20258;-71
2021/01/21 05:17:45;;;;;;;0.30;0.30;;;10.50;81.70;;;;;;5060054;28;20189;-71
2021/01/21 05:20:11;;;;;;;0.30;0.30;;;10.50;81.20;;;;;;5060117;28;20187;-69
2021/01/21 05:22:39;;;;;;;0.30;0.20;;;10.60;81.00;;;;;;5059815;28;20478;-71
2021/01/21 05:25:05;;;;;;;0.30;0.30;;;10.60;81.50;;;;;;4992666;28;20427;-69
2021/01/21 05:27:31;;;;;;;0.30;0.30;;;10.60;82.00;;;;;;4992905;28;20164;-72
2021/01/21 05:30:00;;;;;;;0.30;0.30;;;10.50;82.00;;;;;;5031390;28;20672;-69
2021/01/21 05:32:26;;;;;;;0.30;0.30;;;10.50;81.60;;;;;;5074621;28;20561;-71
2021/01/21 05:34:52;;;;;;;0.30;0.30;;;10.50;81.50;;;;;;5074505;28;20193;-69
2021/01/21 05:37:18;;;;;;;0.30;0.20;;;10.60;80.10;;;;;;5073574;28;20631;-69
2021/01/21 05:39:45;;;;;;;0.30;0.20;;;10.70;80.70;;;;;;5075104;28;20176;-69
2021/01/21 05:42:12;;;;;;;0.32;0.32;;;10.80;80.70;;;;;;5073478;28;20609;-68
2021/01/21 05:44:38;;;;;;;0.30;0.30;;;10.80;80.50;;;;;;5074719;28;20192;-72
2021/01/21 05:47:05;;;;;;;0.30;0.30;;;10.90;80.20;;;;;;5073324;28;20173;-71
2021/01/21 05:49:31;;;;;;;0.30;0.30;;;10.90;80.80;;;;;;5074439;28;20419;-72
2021/01/21 05:51:58;;;;;;;0.30;0.30;;;11.00;79.70;;;;;;5073126;28;20176;-72
2021/01/21 05:54:24;;;;;;;0.30;0.30;;;11.10;78.60;;;;;;5073890;28;20253;-70
2021/01/21 05:56:52;;;;;;;0.30;0.30;;;11.20;78.30;;;;;;5077857;28;20176;-72
2021/01/21 05:59:19;;;;;;;0.30;0.30;;;11.20;78.40;;;;;;5078327;28;20165;-71
2021/01/21 06:01:46;;;;;;;0.30;0.20;;;11.30;78.10;;;;;;5078611;28;20191;-71
2021/01/21 06:04:12;;;;;;;0.30;0.20;;;11.30;77.90;;;;;;5077690;28;20570;-70
2021/01/21 06:06:42;;;;;;;0.30;0.30;;;11.30;77.80;;;;;;5074708;28;20204;-71
2021/01/21 06:09:18;;;;;;;0.30;0.20;;;11.40;77.60;;;;;;5076972;28;20244;-69
2021/01/21 06:11:43;;;;;;;0.30;0.30;;;11.40;77.50;;;;;;5074933;28;20175;-70
2021/01/21 06:14:14;;;;;;;0.40;0.40;;;11.40;77.10;;;;;;5075022;28;20197;-70
2021/01/21 06:16:40;;;;;;;0.30;0.30;;;11.50;77.10;;;;;;5073897;28;20251;-70
2021/01/21 06:19:06;;;;;;;0.55;0.55;;;11.50;76.80;;;;;;5074035;28;20535;-71
2021/01/21 06:21:36;;;;;;;0.30;0.30;;;11.40;76.70;;;;;;5071985;28;20187;-68
2021/01/21 06:24:05;;;;;;;0.30;0.30;;;11.50;76.70;;;;;;5073674;28;20301;-70
2021/01/21 06:26:46;;;;;;;0.30;0.30;;;11.50;76.20;;;;;;5072692;28;20181;-71
2021/01/21 06:29:16;;;;;;;0.30;0.30;;;11.50;75.70;;;;;;5057295;28;20194;-71
2021/01/21 06:31:43;;;;;;;0.30;0.30;;;11.60;75.80;;;;;;4970157;28;20182;-68
2021/01/21 06:34:16;;;;;;;0.30;0.30;;;11.60;76.10;;;;;;4972189;28;20215;-70
2021/01/21 06:36:44;;;;;;;0.30;0.20;;;11.60;75.80;;;;;;4972133;28;20176;-71
2021/01/21 06:39:18;;;;;;;0.40;0.40;;;11.60;75.80;;;;;;4971211;28;20294;-71
2021/01/21 06:41:45;;;;;;;0.30;0.20;;;11.60;76.80;;;;;;4970160;28;20230;-66
2021/01/21 06:44:16;;;;;;;0.30;0.30;;;11.60;76.20;;;;;;4971795;28;20677;-68
2021/01/21 06:46:45;;;;;;;0.30;0.30;;;11.70;75.70;;;;;;4972143;28;20263;-69
2021/01/21 06:49:14;;;;;;;0.30;0.30;;;11.80;75.40;;;;;;4972196;28;20589;-69
2021/01/21 06:51:47;;;;;;;0.30;0.30;;;11.80;75.60;;;;;;4971469;28;20669;-69
2021/01/21 06:54:14;;;;;;;0.30;0.30;;;11.80;76.10;;;;;;4971983;28;20196;-73
2021/01/21 06:56:42;;;;;;;0.30;0.20;;;11.80;76.70;;;;;;4971552;28;20573;-72
2021/01/21 06:59:08;;;;;;;0.30;0.30;;;11.80;78.20;;;;;;4971817;28;20527;-71
2021/01/21 07:01:40;;;;;;;0.30;0.30;;;11.70;77.20;;;;;;4970722;28;20172;-70
2021/01/21 07:04:08;;;;;;;0.30;0.30;;;11.70;77.40;;;;;;4971535;28;20210;-67
2021/01/21 07:06:52;;;;;;;0.30;0.30;;;11.80;77.80;;;;;;4971577;28;20180;-66
2021/01/21 07:09:28;;;;;;;0.30;0.20;;;11.80;77.90;;;;;;4970224;28;20183;-68
2021/01/21 07:11:59;;;;;;;0.30;0.30;;;11.80;78.70;;;;;;4971250;28;20606;-69
2021/01/21 07:14:30;;;;;;;0.30;0.30;;;11.70;80.40;;;;;;4969534;28;20200;-68
2021/01/21 07:17:03;;;;;;;0.30;0.30;;;11.70;82.30;;;;;;4964207;28;20176;-69
2021/01/21 07:19:38;;;;;;;0.30;0.20;;;11.70;84.50;;;;;;4971683;28;20172;-68
2021/01/21 07:22:24;;;;;;;0.30;0.20;;;11.70;85.90;;;;;;4951795;29;20247;-69
2021/01/21 07:24:55;;;;;;;0.30;0.20;;;11.70;87.60;;;;;;4970188;28;20285;-64
2021/01/21 07:27:26;;;;;;;0.30;0.30;;;11.70;88.60;;;;;;4969851;28;20204;-67
2021/01/21 07:30:13;;;;;;;0.30;0.30;;;11.80;89.50;;;;;;4972068;28;20237;-68
2021/01/21 07:32:39;;;;;;;0.30;0.30;;;11.70;90.30;;;;;;4971232;28;20196;-69
2021/01/21 07:35:05;;;;;;;0.30;0.20;;;11.60;91.00;;;;;;4971309;28;20570;-68
2021/01/21 07:37:45;;;;;;;0.30;0.30;;;11.60;91.30;;;;;;4971410;28;20164;-69
2021/01/21 07:40:12;;;;;;;0.30;0.20;;;11.70;91.50;;;;;;4971305;28;20180;-67
2021/01/21 07:42:37;;;;;;;0.30;0.20;;;11.70;91.50;;;;;;4970951;28;20204;-70
2021/01/21 07:45:19;;;;;;;0.30;0.30;;;11.80;91.70;;;;;;4971116;28;20194;-67
2021/01/21 07:47:46;;;;;;;0.60;0.60;;;11.80;91.90;;;;;;4971397;28;20247;-67
2021/01/21 07:50:36;;;;;;;0.30;0.20;;;11.80;91.80;;;;;;4971538;28;20173;-69
2021/01/21 07:53:16;;;;;;;0.40;0.40;;;11.80;91.90;;;;;;4971237;28;20561;-67
2021/01/21 07:55:42;;;;;;;0.50;0.50;;;11.90;91.70;;;;;;4969683;28;20183;-67
2021/01/21 07:58:22;;;;;;;0.30;0.30;;;12.00;91.70;;;;;;4971383;28;20267;-67
2021/01/21 08:00:50;;;;;;;0.30;0.30;;;12.00;91.70;;;;;;4971354;28;20254;-70
2021/01/21 08:03:30;;;;;;;0.30;0.30;;;12.10;91.50;;;;;;4979337;28;20215;-69
2021/01/21 08:06:02;;;;;;;0.30;0.30;;;12.20;91.40;;;;;;4951819;28;20169;-69
2021/01/21 08:08:28;;;;;;;0.30;0.22;;;12.40;91.20;;;;;;4951924;28;20173;-66
2021/01/21 08:11:01;;;;;;;0.30;0.30;;;12.50;91.00;;;;;;4955105;28;20252;-68
2021/01/21 08:13:27;;;;;;;0.30;0.30;;;12.70;90.80;;;;;;4962084;28;20253;-68
2021/01/21 08:15:53;;;;;;;0.30;0.30;;;12.80;90.80;;;;;;4974298;28;20476;-68
2021/01/21 08:18:19;;;;;;;0.30;0.20;;;12.90;90.50;;;;;;4974442;28;20409;-68
2021/01/21 08:20:44;;;;;;;0.30;0.20;;;13.00;90.40;;;;;;4974091;28;20204;-73
2021/01/21 08:23:10;;;;;;;0.30;0.30;;;13.10;90.40;;;;;;4966806;28;20212;-68
2021/01/21 08:25:44;;;;;;;0.30;0.20;;;13.10;90.40;;;;;;4965473;28;20642;-69
2021/01/21 08:28:10;;;;;;;0.70;0.60;;;13.20;90.50;;;;;;4963673;28;20903;-70
2021/01/21 08:30:37;;;;;;;0.30;0.20;;;13.40;90.30;;;;;;4961993;28;20429;-69
2021/01/21 08:33:14;;;;;;;0.30;0.20;;;13.40;90.50;;;;;;4963254;28;20441;-68
2021/01/21 08:35:53;;;;;;;0.30;0.30;;;13.30;90.50;;;;;;4963808;28;20428;-69
2021/01/21 08:38:24;;;;;;;0.30;0.30;;;13.30;90.70;;;;;;4960849;28;20412;-69
2021/01/21 08:40:52;;;;;;;0.30;0.20;;;13.40;90.90;;;;;;4961389;28;20416;-70
2021/01/21 08:43:19;;;;;;;0.30;0.20;;;13.40;90.90;;;;;;4964766;28;20506;-70
2021/01/21 08:45:45;;;;;;;0.30;0.20;;;13.30;91.10;;;;;;4965134;28;20422;-68
2021/01/21 08:48:23;;;;;;;0.30;0.30;;;13.60;91.20;;;;;;4969330;28;20937;-68
2021/01/21 08:50:49;;;;;;;0.30;0.20;;;13.70;91.30;;;;;;4959656;28;20178;-69
2021/01/21 08:53:24;;;;;;;0.30;0.30;;;13.90;91.10;;;;;;4972616;28;20448;-69
2021/01/21 08:55:52;;;;;;;0.30;0.20;;;13.90;91.00;;;;;;4973271;28;20177;-69
2021/01/21 08:58:20;;;;;;;0.30;0.30;;;14.00;91.10;;;;;;4972098;28;20418;-70
2021/01/21 09:01:09;;;;;;;0.30;0.20;;;13.90;91.00;;;;;;4970835;28;20430;-69
2021/01/21 09:03:48;;;;;;;0.30;0.30;;;13.90;91.40;;;;;;4970736;28;20460;-69
2021/01/21 09:06:19;;;;;;;0.30;0.20;;;13.80;91.30;;;;;;4971358;28;20861;-70
2021/01/21 09:08:58;;;;;;;0.30;0.20;;;13.80;91.20;;;;;;4972893;28;20888;-70
2021/01/21 09:11:38;;;;;;;0.30;0.20;;;13.90;91.00;;;;;;4955520;28;20424;-70
2021/01/21 09:14:15;;;;;;;0.30;0.30;;;14.10;91.00;;;;;;4973048;28;20462;-68
2021/01/21 09:16:53;;;;;;;0.30;0.20;;;14.20;90.80;;;;;;4973705;28;20465;-66
2021/01/21 09:19:25;;;;;;;0.30;0.20;;;14.70;90.50;;;;;;4973319;28;20469;-69
2021/01/21 09:22:05;;;;;;;0.30;0.20;;;15.20;89.50;;;;;;4973265;28;20420;-68
2021/01/21 09:24:54;;;;;;;0.30;0.30;;;15.10;88.60;;;;;;4973491;28;20485;-69
2021/01/21 09:27:22;;;;;;;0.30;0.20;;;15.20;89.40;;;;;;4973331;28;20396;-68
2021/01/21 09:29:57;;;;;;;0.30;0.30;;;16.10;88.70;;;;;;4988056;28;20448;-69
2021/01/21 09:32:43;;;;;;;0.50;0.40;;;17.00;87.30;;;;;;4987910;28;20411;-69
2021/01/21 09:35:14;;;;;;;0.30;0.20;;;18.00;83.80;;;;;;4972962;28;20435;-69
2021/01/21 09:37:45;;;;;;;0.30;0.20;;;18.50;82.70;;;;;;4973343;28;20400;-69
2021/01/21 09:40:13;;;;;;;0.30;0.20;;;19.00;80.00;;;;;;4973197;28;20411;-70
2021/01/21 09:42:39;;;;;;;0.30;0.20;;;19.00;79.80;;;;;;4972607;28;20496;-70
2021/01/21 09:45:07;;;;;;;0.30;0.20;;;18.50;79.20;;;;;;4972667;28;20505;-69
2021/01/21 09:47:33;;;;;;;0.30;0.20;;;17.80;80.70;;;;;;4973155;28;20179;-67
2021/01/21 09:49:59;;;;;;;0.30;0.20;;;17.60;81.80;;;;;;4973022;28;20479;-71
2021/01/21 09:52:25;;;;;;;0.30;0.20;;;17.70;81.80;;;;;;4972472;28;20838;-70
2021/01/21 09:54:50;;;;;;;0.30;0.20;;;17.70;82.10;;;;;;4982305;28;20643;-68
2021/01/21 09:57:16;;;;;;;0.30;0.20;;;17.40;81.90;;;;;;4952339;28;20173;-71
2021/01/21 09:59:42;;;;;;;0.30;0.30;;;17.00;83.30;;;;;;4952270;28;20184;-70
2021/01/21 10:02:07;;;;;;;0.30;0.20;;;16.90;83.50;;;;;;4951828;28;20572;-70
2021/01/21 10:04:38;;;;;;;0.30;0.20;;;17.00;84.00;;;;;;4956082;28;20290;-71
2021/01/21 10:07:05;;;;;;;0.30;0.30;;;17.10;83.60;;;;;;4972800;28;20503;-73
2021/01/21 10:09:32;;;;;;;0.30;0.30;;;17.20;83.30;;;;;;4972791;28;20496;-68
2021/01/21 10:11:58;;;;;;;0.30;0.20;;;17.40;83.80;;;;;;4971175;28;20416;-68
2021/01/21 10:14:23;;;;;;;0.30;0.20;;;17.70;83.10;;;;;;4972397;28;20430;-69
2021/01/21 10:16:49;;;;;;;0.30;0.20;;;17.90;81.70;;;;;;4972819;28;20395;-71
2021/01/21 10:19:15;;;;;;;0.30;0.20;;;17.90;81.40;;;;;;4972890;28;20176;-69
2021/01/21 10:21:41;;;;;;;0.30;0.20;;;17.90;82.00;;;;;;4971004;28;20168;-71
2021/01/21 10:24:07;;;;;;;0.30;0.20;;;18.00;81.80;;;;;;4987238;28;20467;-69
2021/01/21 10:26:34;;;;;;;0.30;0.30;;;18.00;81.60;;;;;;4971692;28;20176;-70
2021/01/21 10:29:00;;;;;;;0.30;0.30;;;18.00;81.30;;;;;;4971829;28;20420;-69
2021/01/21 10:31:25;;;;;;;0.30;0.20;;;18.10;81.60;;;;;;4970110;28;20427;-69
2021/01/21 10:33:51;;;;;;;0.30;0.30;;;18.20;81.40;;;;;;4971364;28;20196;-71
2021/01/21 10:36:17;;;;;;;0.30;0.20;;;18.40;79.90;;;;;;4972307;28;20172;-70
2021/01/21 10:38:43;;;;;;;0.30;0.30;;;18.40;81.00;;;;;;4972140;28;20168;-70
2021/01/21 10:41:09;;;;;;;0.30;0.27;;;18.70;80.30;;;;;;4970979;28;20172;-70
2021/01/21 10:43:35;;;;;;;0.30;0.30;;;19.00;79.60;;;;;;4971175;28;20220;-70
2021/01/21 10:46:01;;;;;;;0.30;0.20;;;18.90;79.10;;;;;;4972499;28;20499;-69
2021/01/21 10:48:27;;;;;;;0.30;0.30;;;18.60;79.40;;;;;;4972147;28;20169;-70
2021/01/21 10:50:53;;;;;;;0.30;0.30;;;18.10;80.10;;;;;;4966461;28;20239;-70
2021/01/21 10:53:19;;;;;;;2.30;0.60;;;17.50;80.60;;;;;;4963943;28;20440;-71
2021/01/21 10:55:46;;;;;;;0.30;0.20;;;17.00;82.80;;;;;;4962618;28;20411;-69
2021/01/21 10:58:13;;;;;;;0.30;0.20;;;16.90;83.30;;;;;;4972006;28;20541;-70
2021/01/21 11:00:40;;;;;;;0.30;0.20;;;16.70;83.30;;;;;;4971736;28;20865;-69
2021/01/21 11:03:06;;;;;;;0.30;0.20;;;16.50;83.90;;;;;;4971522;28;20466;-70
2021/01/21 11:05:31;;;;;;;0.53;0.50;;;16.30;86.20;;;;;;4971749;28;20756;-69
2021/01/21 11:07:57;;;;;;;0.30;0.30;;;16.00;87.10;;;;;;4971977;28;20161;-68
2021/01/21 11:10:23;;;;;;;0.30;0.30;;;16.10;86.80;;;;;;4970441;28;20259;-73
2021/01/21 11:12:49;;;;;;;0.30;0.20;;;16.30;86.60;;;;;;4971609;28;20203;-67
2021/01/21 11:15:16;;;;;;;0.30;0.30;;;16.20;86.30;;;;;;4970704;28;20500;-69
2021/01/21 11:17:49;;;;;;;0.30;0.30;;;16.00;87.00;;;;;;4971894;28;20176;-74
2021/01/21 11:20:15;;;;;;;0.30;0.30;;;15.90;87.70;;;;;;4971255;28;20427;-69
2021/01/21 11:22:41;;;;;;;0.30;0.20;;;15.70;88.60;;;;;;4971047;28;20846;-71
2021/01/21 11:25:09;;;;;;;0.30;0.30;;;15.70;89.00;;;;;;4971668;28;20415;-67
2021/01/21 11:27:36;;;;;;;0.30;0.20;;;15.60;88.70;;;;;;4971182;28;20442;-68
2021/01/21 11:30:03;;;;;;;0.30;0.20;;;15.50;90.00;;;;;;4971393;28;20424;-69
2021/01/21 11:32:29;;;;;;;0.30;0.30;;;15.40;89.90;;;;;;4971044;28;20420;-71
2021/01/21 11:34:55;;;;;;;0.30;0.20;;;15.30;90.00;;;;;;4971581;28;20419;-70
2021/01/21 11:37:20;;;;;;;0.30;0.30;;;15.10;90.20;;;;;;4969919;28;20636;-75
2021/01/21 11:39:46;;;;;;;0.30;0.30;;;15.00;90.60;;;;;;4970929;28;20218;-73
2021/01/21 11:42:12;;;;;;;0.30;0.23;;;14.90;90.80;;;;;;4969728;28;20175;-70
2021/01/21 11:44:37;;;;;;;0.30;0.30;;;14.90;90.70;;;;;;4972605;28;20279;-70
2021/01/21 11:47:03;;;;;;;0.30;0.20;;;14.90;90.80;;;;;;4974391;28;20183;-71
2021/01/21 11:49:28;;;;;;;0.30;0.27;;;14.90;90.80;;;;;;4974749;28;20213;-71
2021/01/21 11:51:55;;;;;;;0.37;0.37;;;15.00;90.80;;;;;;4974203;28;20263;-70
2021/01/21 11:54:21;;;;;;;0.30;0.20;;;14.90;90.60;;;;;;4974387;28;20298;-70
2021/01/21 11:56:47;;;;;;;0.30;0.30;;;14.90;91.00;;;;;;4989215;28;20879;-75
2021/01/21 11:59:13;;;;;;;0.30;0.30;;;14.80;90.80;;;;;;4974273;28;20441;-70
2021/01/21 12:01:40;;;;;;;0.30;0.30;;;14.80;90.90;;;;;;4974367;28;20909;-72
2021/01/21 12:04:06;;;;;;;0.30;0.30;;;14.70;90.80;;;;;;4974484;28;20208;-71
2021/01/21 12:06:31;;;;;;;0.30;0.20;;;14.70;90.90;;;;;;4974155;28;20511;-71
2021/01/21 12:08:57;;;;;;;0.30;0.30;;;14.70;90.80;;;;;;4974436;28;20622;-74
2021/01/21 12:11:23;;;;;;;0.30;0.20;;;14.70;90.90;;;;;;4974145;28;20247;-72
2021/01/21 12:13:48;;;;;;;0.30;0.30;;;14.70;90.60;;;;;;4972407;28;20200;-72
2021/01/21 12:17:00;;;;;;;0.30;0.20;;;14.70;90.90;;;;;;4968936;28;20649;-72
2021/01/21 12:19:26;;;;;;;0.30;0.30;;;14.70;91.10;;;;;;4973208;28;20502;-70
2021/01/21 12:21:51;;;;;;;0.30;0.30;;;14.70;91.10;;;;;;4973992;28;20494;-70
2021/01/21 12:24:17;;;;;;;0.30;0.30;;;14.60;90.70;;;;;;4974135;28;20211;-68
2021/01/21 12:26:42;;;;;;;0.30;0.30;;;14.60;91.00;;;;;;4974091;28;20175;-70
2021/01/21 12:29:08;;;;;;;0.30;0.30;;;14.60;91.00;;;;;;4973527;28;20199;-71
2021/01/21 12:31:34;;;;;;;0.30;0.30;;;14.50;91.10;;;;;;4974427;28;20171;-68
2021/01/21 12:33:59;;;;;;;0.30;0.30;;;14.50;91.20;;;;;;4974536;28;20195;-70
2021/01/21 12:36:34;;;;;;;0.30;0.30;;;14.50;91.10;;;;;;4974961;28;20179;-72
2021/01/21 12:39:00;;;;;;;0.30;0.30;;;14.50;91.10;;;;;;4973910;28;20171;-71
2021/01/21 12:41:27;;;;;;;0.30;0.30;;;14.50;91.10;;;;;;4954499;29;20498;-69
2021/01/21 12:43:53;;;;;;;0.30;0.30;;;14.60;91.20;;;;;;4969822;28;20264;-72
2021/01/21 12:46:19;;;;;;;0.30;0.30;;;14.50;91.30;;;;;;4954585;29;20953;-69
2021/01/21 12:48:45;;;;;;;0.30;0.20;;;14.60;91.20;;;;;;4953418;28;20428;-72
2021/01/21 12:51:11;;;;;;;0.30;0.30;;;14.60;91.50;;;;;;4969368;28;20178;-69
2021/01/21 12:53:36;;;;;;;0.30;0.20;;;14.60;91.40;;;;;;4969362;28;20471;-71
2021/01/21 12:56:02;;;;;;;1.03;0.50;;;14.50;91.30;;;;;;4971238;28;20178;-70
2021/01/21 12:58:28;;;;;;;0.30;0.30;;;14.50;91.40;;;;;;4974715;28;20232;-70
2021/01/21 13:00:54;;;;;;;0.30;0.20;;;14.50;91.30;;;;;;4973688;28;20353;-71
2021/01/21 13:03:21;;;;;;;0.30;0.20;;;14.50;91.60;;;;;;4973067;28;20462;-70
2021/01/21 13:05:46;;;;;;;0.40;0.30;;;14.50;91.60;;;;;;4973380;28;20205;-72
2021/01/21 13:08:12;;;;;;;0.30;0.30;;;14.40;91.80;;;;;;4973716;28;20407;-69
2021/01/21 13:10:37;;;;;;;0.30;0.30;;;14.30;92.20;;;;;;4988808;28;20179;-70
2021/01/21 13:13:03;;;;;;;0.30;0.30;;;14.30;92.10;;;;;;4988184;28;20288;-72
2021/01/21 13:15:29;;;;;;;0.30;0.30;;;14.30;92.40;;;;;;4973126;28;20183;-72
2021/01/21 13:17:54;;;;;;;0.30;0.30;;;14.20;92.40;;;;;;4973516;28;20258;-75
2021/01/21 13:20:20;;;;;;;2.10;0.60;;;14.20;92.50;;;;;;4973597;28;20653;-69
2021/01/21 13:22:45;;;;;;;0.30;0.30;;;14.20;92.70;;;;;;4971468;28;20217;-69
2021/01/21 13:25:12;;;;;;;0.30;0.30;;;14.20;92.70;;;;;;4973710;28;20174;-69
2021/01/21 13:27:37;;;;;;;1.00;1.00;;;14.10;92.70;;;;;;4973550;28;20197;-69
2021/01/21 13:30:04;;;;;;;0.30;0.30;;;14.20;92.60;;;;;;4972747;28;20460;-70
2021/01/21 13:32:30;;;;;;;0.30;0.30;;;14.10;92.60;;;;;;4972909;28;20179;-73
2021/01/21 13:34:56;;;;;;;0.30;0.23;;;14.10;92.60;;;;;;4969436;28;20422;-72
2021/01/21 13:37:22;;;;;;;0.50;0.50;;;14.00;92.90;;;;;;4954333;28;20529;-75
2021/01/21 13:39:47;;;;;;;0.30;0.30;;;14.00;93.00;;;;;;4955202;28;20565;-69
2021/01/21 13:42:13;;;;;;;0.30;0.20;;;13.90;92.80;;;;;;4953874;28;20626;-71
2021/01/21 13:44:39;;;;;;;0.30;0.30;;;13.90;93.20;;;;;;4967743;28;20526;-69
2021/01/21 13:47:06;;;;;;;0.30;0.30;;;13.80;93.40;;;;;;4973167;28;20185;-72
2021/01/21 13:49:32;;;;;;;0.30;0.30;;;13.90;93.50;;;;;;4973053;28;20596;-68
2021/01/21 13:51:59;;;;;;;0.30;0.30;;;13.90;93.50;;;;;;4972574;28;20403;-70
2021/01/21 13:54:25;;;;;;;0.30;0.20;;;13.80;93.60;;;;;;4972799;28;20452;-69
2021/01/21 13:56:51;;;;;;;0.30;0.30;;;13.70;93.70;;;;;;4972974;28;20417;-70
2021/01/21 13:59:16;;;;;;;0.30;0.20;;;13.60;93.80;;;;;;4972867;28;20492;-72
2021/01/21 14:01:42;;;;;;;0.30;0.20;;;13.60;93.90;;;;;;4970911;28;20660;-74
2021/01/21 14:04:08;;;;;;;0.30;0.30;;;13.60;94.00;;;;;;4987683;28;20209;-69
2021/01/21 14:06:34;;;;;;;0.30;0.20;;;13.70;94.10;;;;;;4972031;28;20250;-71